• Join FlightAware (Why Join?)
  • Login
  • US Flag 
11:20AM EDT


 

Airport Tracker/Info


-or-


 

Live Flight TrackerFlight Track Log ✈ AAY809 ✈ 07-Feb-2014 ✈ KFSD - KPIE

Flight Track Log - Related Links

Times and Time Zones

All times are in EST time to prevent confusion due to time zone crossing. See the AAY809 flight status page for this flight to view local times or setup timezone preferences in your user account.

Time Position Orientation Groundspeed Altitude Reporting Facility
EST Latitude Longitude Course Direction KTS MPH feet Rate Location/Type
11:30AM 43.5647 -96.7589 125° Southeast 151 174 2,500  Level Minneapolis Center
11:31AM 43.5281 -96.6878 125° Southeast 231 266 5,200 2,760 Climbing Minneapolis Center
11:32AM 43.5056 -96.5869 107° East 252 290 8,200 2,460 Climbing Minneapolis Center
11:33AM 43.4575 -96.4994 127° Southeast 274 315 10,400 1,740 Climbing Minneapolis Center
11:34AM 43.3950 -96.4078 133° Southeast 316 364 11,800 1,980 Climbing Minneapolis Center
11:35AM 43.3244 -96.3033 133° Southeast 355 409 14,600 2,520 Climbing Minneapolis Center
11:36AM 43.2517 -96.1944 133° Southeast 379 436 17,000 2,100 Climbing Minneapolis Center
11:37AM 43.1583 -96.0564 133° Southeast 407 468 19,000 1,740 Climbing Minneapolis Center
11:38AM 43.0753 -95.9353 133° Southeast 428 493 20,700 1,620 Climbing Minneapolis Center
11:39AM 42.9894 -95.8094 133° Southeast 448 516 22,400 1,500 Climbing Minneapolis Center
11:40AM 42.9003 -95.6797 133° Southeast 465 535 23,800 1,380 Climbing Minneapolis Center
11:41AM 42.8075 -95.5461 133° Southeast 480 552 25,300 1,320 Climbing Minneapolis Center
11:42AM 42.7164 -95.4156 134° Southeast 485 558 26,600 1,440 Climbing Minneapolis Center
11:43AM 42.6033 -95.2522 133° Southeast 491 565 28,300 1,380 Climbing Minneapolis Center
11:44AM 42.5075 -95.1181 134° Southeast 493 567 29,500 1,020 Climbing Minneapolis Center
11:45AM 42.4142 -94.9850 134° Southeast 490 564 30,400 720 Climbing Minneapolis Center
11:46AM 42.3206 -94.8556 134° Southeast 486 559 31,000 240 Climbing Minneapolis Center
11:47AM 42.2269 -94.7250 134° Southeast 484 557 31,000  Level Minneapolis Center
11:48AM 42.1294 -94.5894 134° Southeast 495 570 31,000  Level Minneapolis Center
11:50AM 42.0333 -94.4578 134° Southeast 493 567 31,000  Level Minneapolis Center
11:51AM 41.9381 -94.3269 134° Southeast 490 564 31,000  Level Minneapolis Center
11:52AM 41.8231 -94.1686 134° Southeast 492 566 31,000  Level Minneapolis Center
11:53AM 41.7261 -94.0383 135° Southeast 491 565 31,000  Level Minneapolis Center
11:54AM 41.6442 -93.9294 135° Southeast 488 562 31,000  Level Minneapolis Center
11:55AM 41.5314 -93.7761 134° Southeast 486 559 31,000  Level Minneapolis Center
11:56AM 41.4361 -93.6531 136° Southeast 481 554 31,000  Level Minneapolis Center
11:57AM 41.3281 -93.5592 147° Southeast 467 537 31,000  Level Minneapolis Center
11:58AM 41.2197 -93.4692 148° Southeast 462 532 31,000  Level Minneapolis Center
11:59AM 41.1106 -93.3822 149° Southeast 460 529 31,000  Level Minneapolis Center
12:00PM 40.9797 -93.2758 148° Southeast 461 531 31,000  Level Minneapolis Center
12:01PM 40.8733 -93.1864 148° Southeast 457 526 31,000  Level Minneapolis Center
12:02PM 40.8075 -93.1300 147° Southeast 460 529 31,000  Level Chicago Center
12:03PM 40.6983 -93.0414 148° Southeast 463 533 31,000  Level Chicago Center
12:04PM 40.5850 -92.9506 149° Southeast 459 528 31,000  Level Kansas City Center
12:05PM 40.4617 -92.8533 149° Southeast 461 531 31,000  Level Kansas City Center
12:06PM 40.3581 -92.7706 149° Southeast 458 527 31,000  Level Kansas City Center
12:07PM 40.2403 -92.6639 145° Southeast 459 528 31,000  Level Kansas City Center
12:08PM 40.1425 -92.5658 143° Southeast 462 532 31,000  Level Kansas City Center
12:09PM 40.0308 -92.4567 143° Southeast 461 531 31,000  Level Kansas City Center
12:10PM 39.9289 -92.3575 143° Southeast 461 531 31,000  Level Kansas City Center
12:11PM 39.8258 -92.2553 143° Southeast 467 537 31,000  Level Kansas City Center
12:12PM 39.7264 -92.1542 142° Southeast 459 528 31,000  Level Kansas City Center
12:13PM 39.6256 -92.0536 142° Southeast 459 528 31,000  Level Kansas City Center
12:14PM 39.5000 -91.9383 145° Southeast 461 531 31,000  Level Kansas City Center
12:15PM 39.3978 -91.8400 143° Southeast 461 531 31,000  Level Kansas City Center
12:16PM 39.2961 -91.7422 143° Southeast 458 527 31,000  Level Kansas City Center
12:17PM 39.1869 -91.6322 142° Southeast 459 528 31,000  Level Kansas City Center
12:18PM 39.0844 -91.5353 144° Southeast 459 528 31,000  Level Kansas City Center
12:19PM 38.9819 -91.4369 143° Southeast 460 529 31,000  Level Kansas City Center
12:20PM 38.8783 -91.3414 144° Southeast 460 529 31,000  Level Kansas City Center
12:21PM 38.7758 -91.2450 144° Southeast 460 529 31,000  Level Kansas City Center
12:22PM 38.6525 -91.1286 144° Southeast 461 531 31,000  Level Kansas City Center
12:23PM 38.5492 -91.0331 144° Southeast 462 532 31,000  Level Kansas City Center
12:24PM 38.4461 -90.9392 144° Southeast 461 531 31,000  Level Kansas City Center
12:25PM 38.3456 -90.8425 143° Southeast 460 529 31,000  Level Kansas City Center
12:26PM 38.2431 -90.7478 144° Southeast 459 528 31,000  Level Kansas City Center
12:27PM 38.1194 -90.6367 145° Southeast 457 526 31,000  Level Kansas City Center
12:28PM 38.0158 -90.5422 144° Southeast 459 528 31,000  Level Kansas City Center
12:29PM 37.9128 -90.4475 144° Southeast 460 529 31,000  Level Kansas City Center
12:30PM 37.8075 -90.3561 146° Southeast 460 529 31,000  Level Kansas City Center
12:31PM 37.7031 -90.2614 144° Southeast 462 532 31,000  Level Kansas City Center
12:33PM 37.5994 -90.1667 144° Southeast 462 532 31,000  Level Kansas City Center
12:34PM 37.4831 -90.0647 145° Southeast 455 524 31,000  Level Kansas City Center
12:35PM 37.3783 -89.9722 145° Southeast 457 526 31,000  Level Kansas City Center
12:36PM 37.2747 -89.8814 145° Southeast 455 524 31,000  Level Kansas City Center
12:37PM 37.1514 -89.7733 145° Southeast 450 518 31,000  Level Kansas City Center
12:38PM 37.0472 -89.6825 145° Southeast 452 520 31,000  Level Kansas City Center
12:39PM 36.9442 -89.5933 145° Southeast 452 520 31,000  Level Kansas City Center
12:40PM 36.8031 -89.4714 145° Southeast 443 510 31,000  Level Memphis Center
12:41PM 36.7003 -89.3825 145° Southeast 444 511 31,000  Level Memphis Center
12:42PM 36.5761 -89.2750 145° Southeast 446 513 31,000  Level Memphis Center
12:43PM 36.4717 -89.1853 145° Southeast 446 513 31,000  Level Memphis Center
12:44PM 36.3667 -89.0942 145° Southeast 448 516 31,000  Level Memphis Center
12:45PM 36.2625 -89.0064 146° Southeast 448 516 31,000  Level Memphis Center
12:46PM 36.1600 -88.9200 146° Southeast 446 513 31,000  Level Memphis Center
12:47PM 36.0569 -88.8314 145° Southeast 447 514 31,000  Level Memphis Center
12:49PM 35.9539 -88.7456 146° Southeast 447 514 31,000  Level Memphis Center
12:50PM 35.8500 -88.6583 146° Southeast 449 517 31,000  Level Memphis Center
12:51PM 35.7242 -88.5522 146° Southeast 454 522 31,000  Level Memphis Center
12:52PM 35.6192 -88.4647 146° Southeast 455 524 31,000  Level Memphis Center
12:53PM 35.5153 -88.3775 146° Southeast 453 521 31,000  Level Memphis Center
12:54PM 35.4069 -88.2878 146° Southeast 452 520 31,000  Level Memphis Center
12:55PM 35.3031 -88.2028 146° Southeast 450 518 31,000  Level Memphis Center
12:56PM 35.1992 -88.1172 146° Southeast 450 518 31,000  Level Memphis Center
12:57PM 35.0944 -88.0322 146° Southeast 452 520 31,000  Level Memphis Center
12:58PM 34.9908 -87.9494 147° Southeast 448 516 31,000  Level Memphis Center
12:59PM 34.8658 -87.8489 147° Southeast 449 517 31,000  Level Memphis Center
01:00PM 34.7619 -87.7647 146° Southeast 447 514 31,000  Level Memphis Center
01:01PM 34.6581 -87.6819 147° Southeast 448 516 31,000  Level Memphis Center
01:02PM 34.5506 -87.5956 146° Southeast 447 514 31,000  Level Memphis Center
01:03PM 34.4456 -87.5117 147° Southeast 447 514 31,000  Level Memphis Center
01:04PM 34.3394 -87.4258 146° Southeast 450 518 31,000  Level Memphis Center
01:05PM 34.2314 -87.3408 147° Southeast 453 521 31,000  Level Memphis Center
01:06PM 34.1064 -87.2414 147° Southeast 455 524 31,000  Level Memphis Center
01:07PM 33.9975 -87.1547 147° Southeast 453 521 31,000  Level Memphis Center
01:08PM 33.8883 -87.0692 147° Southeast 455 524 31,000  Level Atlanta Center
01:09PM 33.7819 -86.9856 147° Southeast 455 524 31,000  Level Atlanta Center
01:10PM 33.6775 -86.9044 147° Southeast 455 524 31,000  Level Atlanta Center
01:11PM 33.5708 -86.8161 145° Southeast 455 524 31,000  Level Atlanta Center
01:12PM 33.4664 -86.7258 144° Southeast 455 524 31,000  Level Atlanta Center
01:13PM 33.3639 -86.6381 144° Southeast 455 524 31,000  Level Atlanta Center
01:14PM 33.2469 -86.5425 146° Southeast 460 529 31,000  Level Atlanta Center
01:15PM 33.1422 -86.4528 144° Southeast 460 529 31,000  Level Atlanta Center
01:16PM 33.0356 -86.3656 146° Southeast 460 529 31,000  Level Atlanta Center
01:17PM 32.9286 -86.2786 146° Southeast 460 529 31,000  Level Atlanta Center
01:18PM 32.8236 -86.1894 144° Southeast 460 529 31,000  Level Atlanta Center
01:19PM 32.7167 -86.1003 145° Southeast 460 529 31,000  Level Atlanta Center
01:20PM 32.6117 -86.0142 145° Southeast 460 529 31,000  Level Atlanta Center
01:21PM 32.5272 -85.9456 146° Southeast 460 529 31,000  Level Atlanta Center
01:22PM 32.4075 -85.8519 147° Southeast 466 536 31,000  Level Atlanta Center
01:23PM 32.3022 -85.7689 146° Southeast 466 536 31,000  Level Atlanta Center
01:24PM 32.1992 -85.6783 143° Southeast 461 531 31,000  Level Atlanta Center
01:25PM 32.0917 -85.5906 145° Southeast 461 531 31,000  Level Atlanta Center
01:26PM 31.9883 -85.5081 146° Southeast 461 531 31,000  Level Atlanta Center
01:28PM 31.7939 -85.3539 146° Southeast 477 549 31,000  Level Jacksonville Center
01:29PM 31.6892 -85.2706 146° Southeast 470 541 31,000  Level Jacksonville Center
01:30PM 31.5819 -85.1875 147° Southeast 470 541 31,000  Level Jacksonville Center
01:31PM 31.4689 -85.0944 145° Southeast 459 528 31,000  Level Jacksonville Center
01:32PM 31.3617 -85.0092 146° Southeast 459 528 31,000  Level Jacksonville Center
01:33PM 31.2525 -84.9314 149° Southeast 459 528 31,000  Level Jacksonville Center
01:34PM 31.1431 -84.8514 148° Southeast 459 528 31,000  Level Jacksonville Center
01:35PM 31.0336 -84.7717 148° Southeast 464 534 31,000  Level Jacksonville Center
01:36PM 30.9261 -84.6919 148° Southeast 464 534 31,000  Level Jacksonville Center
01:37PM 30.8167 -84.6100 147° Southeast 464 534 31,000  Level Jacksonville Center
01:38PM 30.7214 -84.5406 148° Southeast 464 534 31,000  Level Jacksonville Center
01:39PM 30.6014 -84.4517 147° Southeast 464 534 31,000  Level Jacksonville Center
01:40PM 30.4917 -84.3728 148° Southeast 464 534 31,000  Level Jacksonville Center
01:41PM 30.3819 -84.2939 148° Southeast 464 534 31,000  Level Jacksonville Center
01:42PM 30.2742 -84.2156 148° Southeast 464 534 31,000  Level Jacksonville Center
01:43PM 30.1811 -84.1492 148° Southeast 459 528 31,000  Level Jacksonville Center
01:44PM 30.0689 -84.0686 148° Southeast 459 528 31,000  Level Jacksonville Center
01:45PM 29.9611 -83.9931 149° Southeast 459 528 31,000  Level Jacksonville Center
01:46PM 29.8511 -83.9175 149° Southeast 459 528 31,000  Level Jacksonville Center
01:47PM 29.7431 -83.8397 148° Southeast 459 528 31,000  Level Jacksonville Center
01:48PM 29.6206 -83.7622 151° Southeast 459 528 31,000  Level Jacksonville Center
01:49PM 29.5103 -83.6944 152° Southeast 459 528 31,000 -300 Level Jacksonville Center
01:50PM 29.4000 -83.6244 151° Southeast 454 522 30,400 -1,320 Descending Jacksonville Center
01:51PM 29.2961 -83.5544 150° Southeast 454 522 28,400 -1,740 Descending Jacksonville Center
01:52PM 29.1919 -83.4897 152° Southeast 439 505 27,000 -1,200 Descending Jacksonville Center
01:53PM 29.0881 -83.4225 151° Southeast 433 498 26,100 -1,440 Descending Jacksonville Center
01:54PM 28.9817 -83.3578 152° Southeast 433 498 24,200 -2,100 Descending Jacksonville Center
01:55PM 28.8736 -83.2861 150° Southeast 438 504 21,900 -2,280 Descending Jacksonville Center
01:56PM 28.7736 -83.2242 151° Southeast 433 498 19,700 -2,100 Descending Jacksonville Center
01:57PM 28.6756 -83.1622 151° Southeast 416 479 17,800 -2,040 Descending Jacksonville Center
01:58PM 28.5817 -83.1053 152° Southeast 402 463 15,700 -1,680 Descending Jacksonville Center
02:00PM 28.4000 -82.9833 149° Southeast 347 399 12,800 -1,320 Descending Tampa TRACON
02:01PM 28.3333 -82.9500 156° South 337 388 12,000 -1,020 Descending Tampa TRACON
02:02PM 28.2500 -82.9167 161° South 323 372 11,000 -1,140 Descending Tampa TRACON
02:03PM 28.1833 -82.8833 156° South 298 343 9,900 -1,320 Descending Tampa TRACON
02:04PM 28.1000 -82.8500 161° South 283 326 8,500 -1,320 Descending Tampa TRACON
02:05PM 28.0333 -82.8167 156° South 266 306 7,400 -1,140 Descending Tampa TRACON
02:06PM 27.9667 -82.8167 180° South 218 251 6,300 -1,200 Descending Tampa TRACON
02:07PM 27.9167 -82.8167 180° South 224 258 5,000 -1,200 Descending Tampa TRACON
02:08PM 27.8500 -82.8167 180° South 217 250 4,000 -720 Descending Tampa TRACON
02:09PM 27.7833 -82.8000 168° South 204 235 3,600 -480 Descending Tampa TRACON
02:10PM 27.7500 -82.7500 127° Southeast 193 222 3,000 -420 Descending Tampa TRACON
02:11PM 27.7000 -82.7333 164° South 179 206 2,800 -540 Descending Tampa TRACON
02:12PM 27.7000 -82.6833 90° East 185 213 2,000 -420 Descending Tampa TRACON
02:13PM 27.7500 -82.6667 16° North 195 224 2,000  Level Tampa TRACON
02:14PM 27.7833 -82.6667 360° North 173 199 2,000 -360 Level Tampa TRACON
02:15PM 27.8333 -82.6833 344° North 146 168 1,300 -660 Descending Tampa TRACON
02:16PM 27.8667 -82.6833 360° North 132 152 600 -660 Descending Tampa TRACON